Arcadia, Argentina
Current Conditions -  °F | °C
As of 3:00 AM on Monday 24 Nov 2014 (Local Time) from SANT Reporting Station
Clear Clear  
Wind Chill: 75°   Ceiling: Unl
Heat Index: 75°   Visibility: 6mi
Dew Point: 63°   Wind: 6mph
Humidity: 65%   Direction: 360°N
Pressure: 29.59"   Gusts: NA
Location:  27.3°S, 65.57°W
Report Text: SANT 240600Z 36005KT CAVOK 24/17 Q1002
Loading
Personal Weather Stations






























Interactive Weather Map New forecast layout! Learn more

10-Day Weather Forecast

Advertisements
Track Severe Weather on mobile